マカオ の空港の天気 - METARとTAF

マカオ国際空港 ( VMMC / MFM ) - マカオ タイパ島
飛行場実況気象(Metar)
観測時間12/18 16:30 CST (12/18 08:30 UTC)
風向・風速北 8m/s
視程9000m
天気現象
なし
気温15℃
湿度41%
気圧1023hPa
METARVMMC 180830Z 36016KT 9000 NSC 15/02 Q1023 NOSIG
過去の天気等 Google飛行場航空写真 Wunderground天気予報

過去48時間のMETAR

飛行場予報(TAF)
発表時間: 12/18 13:02 CST (12/18 05:02 UTC)
予報対象時間: 18日14時 CST ~ 19日20時 CST
風向・風速北 9m/s
視程8,000m
なし
TAF VMMC 180502Z 1806/1912 36018KT 8000 NSC